createdAt,value
2017-10-26T00:01:17.485Z,10.60
2017-10-26T00:03:46.436Z,10.60
2017-10-26T00:06:16.156Z,10.70
2017-10-26T00:08:45.111Z,10.70
2017-10-26T00:11:14.086Z,10.70
2017-10-26T00:13:43.488Z,10.70
2017-10-26T00:16:12.434Z,10.70
2017-10-26T00:18:41.360Z,10.80
2017-10-26T00:21:11.158Z,10.70
2017-10-26T00:23:40.110Z,10.70
2017-10-26T00:26:09.827Z,10.80
2017-10-26T00:28:39.570Z,10.80
2017-10-26T00:31:08.498Z,10.80
2017-10-26T00:33:37.456Z,10.90
2017-10-26T00:36:06.395Z,11.00
2017-10-26T00:38:36.121Z,10.90
2017-10-26T00:41:05.861Z,10.90
2017-10-26T00:43:34.794Z,11.00
2017-10-26T00:46:03.756Z,11.10
2017-10-26T00:48:33.120Z,11.00
2017-10-26T00:51:02.081Z,11.00
2017-10-26T00:53:31.028Z,10.90
2017-10-26T00:55:59.992Z,11.20
2017-10-26T00:58:28.929Z,11.10
2017-10-26T01:00:58.658Z,11.10
2017-10-26T01:03:27.615Z,11.10
2017-10-26T01:05:56.591Z,11.10
2017-10-26T01:08:25.554Z,11.00
2017-10-26T01:10:55.263Z,11.00
2017-10-26T01:13:24.988Z,11.10
2017-10-26T01:15:53.957Z,11.10
2017-10-26T01:18:22.919Z,10.90
2017-10-26T01:20:52.225Z,11.10
2017-10-26T01:23:21.205Z,11.10
2017-10-26T01:25:50.563Z,11.10
2017-10-26T01:28:19.510Z,11.00
2017-10-26T01:30:48.446Z,11.10
2017-10-26T01:33:17.440Z,11.10
2017-10-26T01:35:46.391Z,11.10
2017-10-26T01:38:15.337Z,11.10
2017-10-26T01:40:44.332Z,11.10
2017-10-26T01:43:14.201Z,11.10
2017-10-26T01:45:43.113Z,11.10
2017-10-26T01:48:12.460Z,11.10
2017-10-26T01:50:41.439Z,11.00
2017-10-26T01:53:10.408Z,11.00
2017-10-26T01:55:39.412Z,11.10
2017-10-26T01:58:08.359Z,11.00
2017-10-26T02:00:38.091Z,11.10
2017-10-26T02:03:07.036Z,11.10
2017-10-26T02:05:35.998Z,11.00
2017-10-26T02:08:05.717Z,11.00
2017-10-26T02:10:34.672Z,11.00
2017-10-26T02:13:03.603Z,10.80
2017-10-26T02:15:32.569Z,10.80
2017-10-26T02:18:01.514Z,10.70
2017-10-26T02:20:31.240Z,10.70
2017-10-26T02:23:00.169Z,10.70
2017-10-26T02:25:29.924Z,10.70
2017-10-26T02:27:58.834Z,10.70
2017-10-26T02:30:51.498Z,10.70
2017-10-26T02:33:20.435Z,10.70
2017-10-26T02:35:49.505Z,10.70
2017-10-26T02:38:18.462Z,10.80
2017-10-26T02:40:47.431Z,10.80
2017-10-26T02:43:17.164Z,10.80
2017-10-26T02:45:46.668Z,10.90
2017-10-26T02:48:15.610Z,11.00
2017-10-26T02:50:44.676Z,11.00
2017-10-26T02:53:13.646Z,10.80
2017-10-26T02:55:42.603Z,10.70
2017-10-26T02:58:12.322Z,10.80
2017-10-26T03:00:42.069Z,10.90
2017-10-26T03:03:11.012Z,10.80
2017-10-26T03:05:40.737Z,11.00
2017-10-26T03:08:09.700Z,11.10
2017-10-26T03:10:38.685Z,10.90
2017-10-26T03:13:07.646Z,11.00
2017-10-26T03:15:36.615Z,11.00
2017-10-26T03:18:05.556Z,11.00
2017-10-26T03:20:34.574Z,11.00
2017-10-26T03:23:03.557Z,10.90
2017-10-26T03:25:32.523Z,11.00
2017-10-26T03:28:01.478Z,11.00
2017-10-26T03:30:30.467Z,11.10
2017-10-26T03:32:59.490Z,11.10
2017-10-26T03:35:28.469Z,11.20
2017-10-26T03:37:57.431Z,11.20
2017-10-26T03:40:26.396Z,11.00
2017-10-26T03:42:55.336Z,11.10
2017-10-26T03:45:24.309Z,11.10
2017-10-26T03:47:53.244Z,11.10
2017-10-26T03:50:22.205Z,11.10
2017-10-26T03:52:51.330Z,11.20
2017-10-26T03:55:20.345Z,11.30
2017-10-26T03:57:49.292Z,11.10
2017-10-26T04:00:19.298Z,11.20
2017-10-26T04:02:48.263Z,11.20
2017-10-26T04:05:18.073Z,11.20
2017-10-26T04:07:47.002Z,11.30
2017-10-26T04:10:15.975Z,11.30
2017-10-26T04:12:45.318Z,11.30
2017-10-26T04:15:14.307Z,11.30
2017-10-26T04:17:43.264Z,11.40
2017-10-26T04:20:12.245Z,11.50
2017-10-26T04:22:41.602Z,11.40
2017-10-26T04:25:10.594Z,11.40
2017-10-26T04:27:39.586Z,11.30
2017-10-26T04:30:08.612Z,11.20
2017-10-26T04:32:37.775Z,11.00
2017-10-26T04:35:06.743Z,11.00
2017-10-26T04:37:36.107Z,11.00
2017-10-26T04:40:05.094Z,10.90
2017-10-26T04:42:34.819Z,10.90
2017-10-26T04:45:03.804Z,11.00
2017-10-26T04:47:32.774Z,11.10
2017-10-26T04:50:02.405Z,11.20
2017-10-26T04:52:31.762Z,11.10
2017-10-26T04:55:00.742Z,11.20
2017-10-26T04:57:29.664Z,11.20
2017-10-26T04:59:59.438Z,11.30
2017-10-26T05:02:28.436Z,11.40
2017-10-26T05:04:57.442Z,11.30
2017-10-26T05:07:27.172Z,11.30
2017-10-26T05:09:56.917Z,11.40
2017-10-26T05:12:26.627Z,11.40
2017-10-26T05:14:55.675Z,11.50
2017-10-26T05:17:24.785Z,11.50
2017-10-26T05:19:54.550Z,11.40
2017-10-26T05:22:23.502Z,11.40
2017-10-26T05:24:52.871Z,11.60
2017-10-26T05:27:21.835Z,11.50
2017-10-26T05:29:50.775Z,11.50
2017-10-26T05:32:20.136Z,11.50
2017-10-26T05:34:50.662Z,11.50
2017-10-26T05:37:19.890Z,11.60
2017-10-26T05:39:49.603Z,11.70
2017-10-26T05:42:18.628Z,11.70
2017-10-26T05:44:47.564Z,11.60
2017-10-26T05:47:16.662Z,11.60
2017-10-26T05:49:45.703Z,11.60
2017-10-26T05:52:14.675Z,11.60
2017-10-26T05:54:44.388Z,11.50
2017-10-26T05:57:13.437Z,11.60
2017-10-26T05:59:42.378Z,11.50
2017-10-26T06:02:11.357Z,11.50
2017-10-26T06:04:40.709Z,11.70
2017-10-26T06:07:09.671Z,11.70
2017-10-26T06:09:38.654Z,11.70
2017-10-26T06:12:07.758Z,11.70
2017-10-26T06:14:36.708Z,12.00
2017-10-26T06:17:06.458Z,11.90
2017-10-26T06:19:35.879Z,12.00
2017-10-26T06:22:08.685Z,12.00
2017-10-26T06:24:37.740Z,12.00
2017-10-26T06:27:07.518Z,12.10
2017-10-26T06:29:37.828Z,12.20
2017-10-26T06:32:07.825Z,12.20
2017-10-26T06:34:36.814Z,12.20
2017-10-26T06:37:07.300Z,12.20
2017-10-26T06:39:36.244Z,12.20
2017-10-26T06:42:05.571Z,12.20
2017-10-26T06:44:35.177Z,12.10
2017-10-26T06:47:05.043Z,12.20
2017-10-26T06:49:34.881Z,12.30
2017-10-26T06:52:04.710Z,12.20
2017-10-26T06:54:33.779Z,12.20
2017-10-26T06:57:02.844Z,12.20
2017-10-26T06:59:31.856Z,12.20
2017-10-26T07:02:01.679Z,12.20
2017-10-26T07:04:30.666Z,12.30
2017-10-26T07:06:59.715Z,12.30
2017-10-26T07:09:28.813Z,12.40
2017-10-26T07:11:58.590Z,12.40
2017-10-26T07:14:27.757Z,12.50
2017-10-26T07:16:56.863Z,12.60
2017-10-26T07:19:25.870Z,12.60
2017-10-26T07:21:55.726Z,12.70
2017-10-26T07:24:24.757Z,12.70
2017-10-26T07:26:54.559Z,12.70
2017-10-26T07:29:24.552Z,12.90
2017-10-26T07:31:53.591Z,12.90
2017-10-26T07:34:23.337Z,13.00
2017-10-26T07:36:52.276Z,13.00
2017-10-26T07:39:21.281Z,13.20
2017-10-26T07:41:51.000Z,13.20
2017-10-26T07:44:20.357Z,13.20
2017-10-26T07:46:49.762Z,13.20
2017-10-26T07:49:18.774Z,13.20
2017-10-26T07:51:47.902Z,13.20
2017-10-26T07:54:17.248Z,13.30
2017-10-26T07:56:47.676Z,13.30
2017-10-26T07:59:16.728Z,13.30
2017-10-26T08:01:45.801Z,13.30
2017-10-26T08:04:15.544Z,13.20
2017-10-26T08:06:44.569Z,13.10
2017-10-26T08:09:14.414Z,13.20
2017-10-26T08:11:43.367Z,13.20
2017-10-26T08:14:12.407Z,13.20
2017-10-26T08:16:41.501Z,13.30
2017-10-26T08:19:10.524Z,13.40
2017-10-26T08:21:39.538Z,13.40
2017-10-26T08:24:08.633Z,13.40
2017-10-26T08:26:37.687Z,13.50
2017-10-26T08:29:07.271Z,13.60
2017-10-26T08:31:36.554Z,13.60
2017-10-26T08:34:06.455Z,13.40
2017-10-26T08:36:35.978Z,13.50
2017-10-26T08:39:04.985Z,13.50
2017-10-26T08:41:34.023Z,13.50
2017-10-26T08:44:04.662Z,13.40
2017-10-26T08:46:34.766Z,13.60
2017-10-26T08:49:03.752Z,13.70
2017-10-26T08:51:33.604Z,13.70
2017-10-26T08:54:03.425Z,13.90
2017-10-26T08:56:34.572Z,13.90
2017-10-26T08:59:04.365Z,14.10
2017-10-26T09:01:33.469Z,14.10
2017-10-26T09:04:03.085Z,14.00
2017-10-26T09:06:32.142Z,14.00
2017-10-26T09:09:01.568Z,13.90
2017-10-26T09:11:31.292Z,13.90
2017-10-26T09:14:01.383Z,13.80
2017-10-26T09:16:30.717Z,13.90
2017-10-26T09:19:00.610Z,14.00
2017-10-26T09:21:30.185Z,14.10
2017-10-26T09:24:00.128Z,14.00
2017-10-26T09:26:29.966Z,13.90
2017-10-26T09:28:58.982Z,13.90
2017-10-26T09:31:28.032Z,13.90
2017-10-26T09:33:57.120Z,13.90
2017-10-26T09:36:26.507Z,14.00
2017-10-26T09:38:55.606Z,14.00
2017-10-26T09:41:24.557Z,14.10
2017-10-26T09:43:53.881Z,14.10
2017-10-26T09:46:22.860Z,14.60
2017-10-26T09:48:55.479Z,14.70
2017-10-26T09:51:26.642Z,14.60
2017-10-26T09:53:55.746Z,14.70
2017-10-26T09:56:24.881Z,14.80
2017-10-26T09:58:54.643Z,14.80
2017-10-26T10:01:24.421Z,15.20
2017-10-26T10:03:56.599Z,15.20
2017-10-26T10:06:26.500Z,15.40
2017-10-26T10:08:56.782Z,15.40
2017-10-26T10:11:25.871Z,15.40
2017-10-26T10:13:54.899Z,15.20
2017-10-26T10:16:23.917Z,15.10
2017-10-26T10:18:53.713Z,15.10
2017-10-26T10:21:23.419Z,15.10
2017-10-26T10:23:52.703Z,15.30
2017-10-26T10:26:21.734Z,15.30
2017-10-26T10:28:50.815Z,15.30
2017-10-26T10:31:19.952Z,15.40
2017-10-26T10:33:49.016Z,15.30
2017-10-26T10:36:18.547Z,15.20
2017-10-26T10:38:47.616Z,15.20
2017-10-26T10:41:17.422Z,15.30
2017-10-26T10:43:56.467Z,15.40
2017-10-26T10:46:26.263Z,15.50
2017-10-26T10:48:55.290Z,15.50
2017-10-26T10:51:24.353Z,15.70
2017-10-26T10:53:53.515Z,15.70
2017-10-26T10:56:23.782Z,15.90
2017-10-26T10:58:53.741Z,15.80
2017-10-26T11:01:22.747Z,15.80
2017-10-26T11:03:51.775Z,15.60
2017-10-26T11:06:21.671Z,15.70
2017-10-26T11:08:50.720Z,15.60
2017-10-26T11:11:19.745Z,15.50
2017-10-26T11:13:48.863Z,15.50
2017-10-26T11:16:17.818Z,15.50
2017-10-26T11:18:47.957Z,15.30
2017-10-26T11:21:16.988Z,15.30
2017-10-26T11:23:46.476Z,15.30
2017-10-26T11:26:16.236Z,15.30
2017-10-26T11:28:45.290Z,15.10
2017-10-26T11:31:15.242Z,15.20
2017-10-26T11:33:44.323Z,15.30
2017-10-26T11:36:13.379Z,15.60
2017-10-26T11:38:42.995Z,15.80
2017-10-26T11:41:12.373Z,15.80
2017-10-26T11:43:41.392Z,15.90
2017-10-26T11:46:11.133Z,15.90
2017-10-26T11:48:40.226Z,15.90
2017-10-26T11:51:09.251Z,15.90
2017-10-26T11:53:39.242Z,15.90
2017-10-26T11:56:08.709Z,15.80
2017-10-26T11:58:38.440Z,15.80
2017-10-26T12:01:07.423Z,16.00
2017-10-26T12:03:36.762Z,16.00
2017-10-26T12:06:05.808Z,16.00
2017-10-26T12:08:34.771Z,15.80
2017-10-26T12:11:03.713Z,15.80
2017-10-26T12:13:32.663Z,15.80
2017-10-26T12:16:02.457Z,15.90
2017-10-26T12:18:31.405Z,15.90
2017-10-26T12:21:00.374Z,15.80
2017-10-26T12:23:29.328Z,15.70
2017-10-26T12:25:59.013Z,15.60
2017-10-26T12:28:27.954Z,15.40
2017-10-26T12:30:57.332Z,15.30
2017-10-26T12:33:26.548Z,15.30
2017-10-26T12:35:55.506Z,15.40
2017-10-26T12:38:24.470Z,15.40
2017-10-26T12:40:53.832Z,15.50
2017-10-26T12:43:23.525Z,15.40
2017-10-26T12:45:53.196Z,15.40
2017-10-26T12:48:22.159Z,15.50
2017-10-26T12:50:51.117Z,15.30
2017-10-26T12:53:20.063Z,15.40
2017-10-26T12:55:49.019Z,15.20
2017-10-26T12:58:17.963Z,15.30
2017-10-26T13:00:46.932Z,15.40
2017-10-26T13:03:16.018Z,15.40
2017-10-26T13:05:45.085Z,15.80
2017-10-26T13:08:14.397Z,15.80
2017-10-26T13:10:43.701Z,15.90
2017-10-26T13:13:12.635Z,16.00
2017-10-26T13:15:41.607Z,15.90
2017-10-26T13:18:10.567Z,15.90
2017-10-26T13:20:39.650Z,15.90
2017-10-26T13:23:08.591Z,15.90
2017-10-26T13:25:37.533Z,15.90
2017-10-26T13:28:06.479Z,15.90
2017-10-26T13:30:35.452Z,15.90
2017-10-26T13:33:04.423Z,15.70
2017-10-26T13:35:33.356Z,15.60
2017-10-26T13:38:02.340Z,15.60
2017-10-26T13:40:31.293Z,15.60
2017-10-26T13:43:01.012Z,15.50
2017-10-26T13:45:29.947Z,15.40
2017-10-26T13:47:58.916Z,15.50
2017-10-26T13:50:27.929Z,15.40
2017-10-26T13:52:58.272Z,15.50
2017-10-26T13:55:29.092Z,15.40
2017-10-26T13:57:58.049Z,15.40
2017-10-26T14:00:26.974Z,15.40
2017-10-26T14:02:56.016Z,15.30
2017-10-26T14:05:25.698Z,15.50
2017-10-26T14:07:54.671Z,15.40
2017-10-26T14:10:23.604Z,15.40
2017-10-26T14:12:53.322Z,15.40
2017-10-26T14:15:22.250Z,15.40
2017-10-26T14:17:51.195Z,15.20
2017-10-26T14:20:20.231Z,15.30
2017-10-26T14:22:50.011Z,15.30
2017-10-26T14:25:19.497Z,15.30
2017-10-26T14:27:49.225Z,15.30
2017-10-26T14:30:18.903Z,15.30
2017-10-26T14:32:48.604Z,15.20
2017-10-26T14:35:17.605Z,15.30
2017-10-26T14:37:46.692Z,15.30
2017-10-26T14:40:17.329Z,15.30
2017-10-26T14:42:47.120Z,15.30
2017-10-26T14:45:16.200Z,15.30
2017-10-26T14:47:45.250Z,15.10
2017-10-26T14:50:14.621Z,15.10
2017-10-26T14:52:45.658Z,14.80
2017-10-26T14:55:14.713Z,14.80
2017-10-26T14:57:43.714Z,14.70
2017-10-26T15:00:12.668Z,14.80
2017-10-26T15:02:42.640Z,14.80
2017-10-26T15:05:11.764Z,14.70
2017-10-26T15:07:41.670Z,14.70
2017-10-26T15:10:10.691Z,14.70
2017-10-26T15:12:39.656Z,14.60
2017-10-26T15:15:09.518Z,14.60
2017-10-26T15:17:38.548Z,14.60
2017-10-26T15:20:07.597Z,14.60
2017-10-26T15:22:36.531Z,14.60
2017-10-26T15:25:05.573Z,14.60
2017-10-26T15:27:34.907Z,14.60
2017-10-26T15:30:04.713Z,14.60
2017-10-26T15:32:33.685Z,14.60
2017-10-26T15:35:02.672Z,14.50
2017-10-26T15:37:32.409Z,14.50
2017-10-26T15:40:02.717Z,14.50
2017-10-26T15:42:32.765Z,14.40
2017-10-26T15:45:02.552Z,14.40
2017-10-26T15:47:33.326Z,14.40
2017-10-26T15:50:02.969Z,14.30
2017-10-26T15:52:31.905Z,14.30
2017-10-26T15:55:00.906Z,14.20
2017-10-26T15:57:29.943Z,14.10
2017-10-26T15:59:58.908Z,13.90
2017-10-26T16:02:27.969Z,13.90
2017-10-26T16:04:57.433Z,13.90
2017-10-26T16:07:26.455Z,13.90
2017-10-26T16:09:55.440Z,13.70
2017-10-26T16:12:24.384Z,13.70
2017-10-26T16:14:53.804Z,13.60
2017-10-26T16:17:22.742Z,13.60
2017-10-26T16:19:51.722Z,13.60
2017-10-26T16:22:20.672Z,13.60
2017-10-26T16:24:50.209Z,13.70
2017-10-26T16:27:19.140Z,13.70
2017-10-26T16:29:48.157Z,13.70
2017-10-26T16:32:17.101Z,13.70
2017-10-26T16:34:46.038Z,13.40
2017-10-26T16:37:15.003Z,13.40
2017-10-26T16:39:44.349Z,13.50
2017-10-26T16:42:13.315Z,13.50
2017-10-26T16:44:42.274Z,13.40
2017-10-26T16:47:11.264Z,13.30
2017-10-26T16:49:40.229Z,13.40
2017-10-26T16:52:09.232Z,13.40
2017-10-26T16:54:38.167Z,13.30
2017-10-26T16:57:07.905Z,13.30
2017-10-26T16:59:36.874Z,13.30
2017-10-26T17:02:06.613Z,13.30
2017-10-26T17:04:35.560Z,13.40
2017-10-26T17:07:05.383Z,13.40
2017-10-26T17:09:35.085Z,13.30
2017-10-26T17:12:04.574Z,13.30
2017-10-26T17:14:33.526Z,13.30
2017-10-26T17:17:02.472Z,13.30
2017-10-26T17:19:32.191Z,13.30
2017-10-26T17:22:01.905Z,13.30
2017-10-26T17:24:30.859Z,13.20
2017-10-26T17:27:00.361Z,13.10
2017-10-26T17:29:31.022Z,13.20
2017-10-26T17:32:00.771Z,13.40
2017-10-26T17:34:29.751Z,13.40
2017-10-26T17:36:58.737Z,13.30
2017-10-26T17:39:27.707Z,13.30
2017-10-26T17:41:56.708Z,13.30
2017-10-26T17:44:26.431Z,13.30
2017-10-26T17:46:55.492Z,13.20
2017-10-26T17:49:25.200Z,13.20
2017-10-26T17:51:54.190Z,13.00
2017-10-26T17:54:23.908Z,13.10
2017-10-26T17:56:53.286Z,13.10
2017-10-26T17:59:23.012Z,13.10
2017-10-26T18:01:52.767Z,13.10
2017-10-26T18:04:22.543Z,13.10
2017-10-26T18:06:52.285Z,13.10
2017-10-26T18:09:21.240Z,13.10
2017-10-26T18:11:50.991Z,13.00
2017-10-26T18:14:20.784Z,13.00
2017-10-26T18:16:49.805Z,12.80
2017-10-26T18:19:18.799Z,12.90
2017-10-26T18:21:47.842Z,12.80
2017-10-26T18:24:16.870Z,12.70
2017-10-26T18:26:47.685Z,12.80
2017-10-26T18:29:17.593Z,12.70
2017-10-26T18:31:47.326Z,12.70
2017-10-26T18:34:16.773Z,12.60
2017-10-26T18:36:45.884Z,12.60
2017-10-26T18:39:14.943Z,12.60
2017-10-26T18:41:44.645Z,12.60
2017-10-26T18:44:13.604Z,12.70
2017-10-26T18:46:42.626Z,12.70
2017-10-26T18:49:11.646Z,12.60
2017-10-26T18:51:40.649Z,12.60
2017-10-26T18:54:09.743Z,12.60
2017-10-26T18:56:38.720Z,12.50
2017-10-26T18:59:07.699Z,12.50
2017-10-26T19:01:36.688Z,12.50
2017-10-26T19:04:06.763Z,12.40
2017-10-26T19:06:35.743Z,12.50
2017-10-26T19:09:05.493Z,12.60
2017-10-26T19:11:35.031Z,12.40
2017-10-26T19:14:04.046Z,12.40
2017-10-26T19:16:33.428Z,12.50
2017-10-26T19:19:02.450Z,12.50
2017-10-26T19:21:31.434Z,12.40
2017-10-26T19:24:01.338Z,12.40
2017-10-26T19:26:30.773Z,12.40
2017-10-26T19:29:00.699Z,12.50
2017-10-26T19:31:29.882Z,12.40
2017-10-26T19:33:59.126Z,12.40
2017-10-26T19:36:28.411Z,12.50
2017-10-26T19:38:58.338Z,12.50
2017-10-26T19:41:27.353Z,12.40
2017-10-26T19:44:04.890Z,12.40
2017-10-26T19:46:34.049Z,12.30
2017-10-26T19:49:04.659Z,12.30
2017-10-26T19:51:33.680Z,12.30
2017-10-26T19:54:03.401Z,12.30
2017-10-26T19:56:32.405Z,12.30
2017-10-26T19:59:02.107Z,12.40
2017-10-26T20:01:32.089Z,12.40
2017-10-26T20:04:01.065Z,12.40
2017-10-26T20:06:30.892Z,12.40
2017-10-26T20:09:00.727Z,12.40
2017-10-26T20:11:29.757Z,12.40
2017-10-26T20:13:58.721Z,12.60
2017-10-26T20:16:27.759Z,12.50
2017-10-26T20:18:56.728Z,12.40
2017-10-26T20:21:25.738Z,12.40
2017-10-26T20:23:54.757Z,12.30
2017-10-26T20:26:23.712Z,12.30
2017-10-26T20:28:52.720Z,12.20
2017-10-26T20:31:21.685Z,12.30
2017-10-26T20:33:50.736Z,12.30
2017-10-26T20:36:20.528Z,12.30
2017-10-26T20:38:50.004Z,12.40
2017-10-26T20:41:19.084Z,12.40
2017-10-26T20:43:48.047Z,12.50
2017-10-26T20:46:17.008Z,12.50
2017-10-26T20:48:46.750Z,12.50
2017-10-26T20:51:21.415Z,12.50
2017-10-26T20:53:56.013Z,12.50
2017-10-26T20:56:30.565Z,12.40
2017-10-26T20:59:05.213Z,12.40
2017-10-26T21:01:40.275Z,12.40
2017-10-26T21:04:14.929Z,12.40
2017-10-26T21:06:43.915Z,12.40
2017-10-26T21:09:18.934Z,12.40
2017-10-26T21:11:53.519Z,12.40
2017-10-26T21:14:28.252Z,12.40
2017-10-26T21:16:57.980Z,12.40
2017-10-26T21:19:26.985Z,12.40
2017-10-26T21:21:56.123Z,12.30
2017-10-26T21:24:25.475Z,12.30
2017-10-26T21:26:54.456Z,12.40
2017-10-26T21:29:24.161Z,12.40
2017-10-26T21:31:53.537Z,12.40
2017-10-26T21:34:22.483Z,12.30
2017-10-26T21:36:51.449Z,12.30
2017-10-26T21:39:20.822Z,12.30
2017-10-26T21:41:49.846Z,12.30
2017-10-26T21:44:19.573Z,12.20
2017-10-26T21:46:48.520Z,12.30
2017-10-26T21:49:18.264Z,12.30
2017-10-26T21:51:47.192Z,12.30
2017-10-26T21:54:16.536Z,12.30
2017-10-26T21:56:46.269Z,12.30
2017-10-26T21:59:15.629Z,12.30
2017-10-26T22:01:44.588Z,12.30
2017-10-26T22:04:13.563Z,12.20
2017-10-26T22:06:42.617Z,12.30
2017-10-26T22:09:11.564Z,12.20
2017-10-26T22:11:40.659Z,12.20
2017-10-26T22:14:09.672Z,12.30
2017-10-26T22:16:38.644Z,12.20
2017-10-26T22:19:07.641Z,12.10
2017-10-26T22:21:36.577Z,12.10
2017-10-26T22:24:06.275Z,12.20
2017-10-26T22:26:35.995Z,12.00
2017-10-26T22:29:05.336Z,12.00
2017-10-26T22:31:35.125Z,12.10
2017-10-26T22:34:05.204Z,12.00
2017-10-26T22:36:34.946Z,12.10
2017-10-26T22:39:03.880Z,12.00
2017-10-26T22:41:32.868Z,12.00
2017-10-26T22:44:02.579Z,12.00
2017-10-26T22:46:31.705Z,12.00
2017-10-26T22:49:01.396Z,11.90
2017-10-26T22:51:30.355Z,11.90
2017-10-26T22:53:59.321Z,11.90
2017-10-26T22:56:28.251Z,11.90
2017-10-26T22:58:57.187Z,11.90
2017-10-26T23:01:26.546Z,11.80
2017-10-26T23:03:55.522Z,11.70
2017-10-26T23:06:24.478Z,11.70
2017-10-26T23:08:53.446Z,11.60
2017-10-26T23:11:23.162Z,11.70
2017-10-26T23:13:52.114Z,11.60
2017-10-26T23:16:21.460Z,11.70
2017-10-26T23:18:50.534Z,11.60
2017-10-26T23:21:19.649Z,11.60
2017-10-26T23:23:49.406Z,11.60
2017-10-26T23:26:18.383Z,11.60
2017-10-26T23:28:47.342Z,11.50
2017-10-26T23:31:17.128Z,11.50
2017-10-26T23:33:46.092Z,11.50
2017-10-26T23:36:15.043Z,11.40
2017-10-26T23:38:44.016Z,11.50
2017-10-26T23:41:12.948Z,11.50
2017-10-26T23:43:42.681Z,11.50
2017-10-26T23:46:11.621Z,11.50
2017-10-26T23:48:41.357Z,11.40
2017-10-26T23:51:10.275Z,11.40
2017-10-26T23:53:39.629Z,11.30
2017-10-26T23:56:08.563Z,11.30
2017-10-26T23:58:37.525Z,11.40
